Time;durP1;ratioP1;P1;durP2;ratioP2;P2;SDS_P1;SDS_P2;PMS_P1;PMS_P2;Temp;Humidity;BMP_temperature;BMP_pressure;BME280_temperature;BME280_humidity;BME280_pressure;Samples;Min_cycle;Max_cycle;Signal;HPM_P1;HPM_P2
2021/01/26 00:02:22;;;;;;;;;21.75;21.00;;;;;;;;5021319;28;9592;-77
2021/01/26 00:04:48;;;;;;;;;29.00;26.33;;;;;;;;5021674;28;8855;-77
2021/01/26 00:07:14;;;;;;;;;26.75;24.00;;;;;;;;5022380;28;8851;-77
2021/01/26 00:09:40;;;;;;;;;24.33;24.33;;;;;;;;5020769;28;8966;-77
2021/01/26 00:12:08;;;;;;;;;22.33;21.67;;;;;;;;5022901;28;8844;-77
2021/01/26 00:14:34;;;;;;;;;29.67;25.00;;;;;;;;5019795;28;8873;-77
2021/01/26 00:17:00;;;;;;;;;34.75;33.00;;;;;;;;5015900;28;8855;-77
2021/01/26 00:19:27;;;;;;;;;22.33;21.00;;;;;;;;5023111;28;9026;-78
2021/01/26 00:21:53;;;;;;;;;21.33;20.33;;;;;;;;5020791;28;8964;-78
2021/01/26 00:24:18;;;;;;;;;27.25;22.00;;;;;;;;5021971;28;8843;-78
2021/01/26 00:26:44;;;;;;;;;26.50;23.00;;;;;;;;5021700;28;8975;-78
2021/01/26 00:29:11;;;;;;;;;31.50;28.25;;;;;;;;5020674;28;8839;-77
2021/01/26 00:31:37;;;;;;;;;28.75;28.00;;;;;;;;5022596;28;8840;-78
2021/01/26 00:34:03;;;;;;;;;28.25;25.50;;;;;;;;5020136;28;8978;-77
2021/01/26 00:36:30;;;;;;;;;31.25;28.75;;;;;;;;5023053;28;8846;-77
2021/01/26 00:38:56;;;;;;;;;22.50;19.25;;;;;;;;5019924;28;8874;-75
2021/01/26 00:41:22;;;;;;;;;22.50;19.50;;;;;;;;5022166;28;8865;-77
2021/01/26 00:43:48;;;;;;;;;23.75;22.50;;;;;;;;5020962;28;8918;-76
2021/01/26 00:46:13;;;;;;;;;26.75;26.00;;;;;;;;5021003;28;8851;-77
2021/01/26 00:48:39;;;;;;;;;20.67;18.00;;;;;;;;5022063;28;8833;-77
2021/01/26 00:51:05;;;;;;;;;25.50;21.25;;;;;;;;5019591;28;8862;-76
2021/01/26 00:53:32;;;;;;;;;24.50;19.75;;;;;;;;5022961;28;8917;-77
2021/01/26 00:55:58;;;;;;;;;27.00;22.00;;;;;;;;5019633;28;8842;-78
2021/01/26 00:58:24;;;;;;;;;24.00;23.00;;;;;;;;5022079;28;8869;-75
2021/01/26 01:00:50;;;;;;;;;21.25;20.00;;;;;;;;5020663;28;8956;-77
2021/01/26 01:03:16;;;;;;;;;21.00;18.67;;;;;;;;5020815;28;8923;-77
2021/01/26 01:05:42;;;;;;;;;21.00;20.25;;;;;;;;5021705;28;8962;-77
2021/01/26 01:08:08;;;;;;;;;13.25;13.25;;;;;;;;5019727;28;8854;-78
2021/01/26 01:10:38;;;;;;;;;20.00;19.00;;;;;;;;5022897;28;8874;-76
2021/01/26 01:13:04;;;;;;;;;19.75;17.00;;;;;;;;5019240;28;9555;-77
2021/01/26 01:15:32;;;;;;;;;19.50;18.00;;;;;;;;5022542;28;8953;-77
2021/01/26 01:17:58;;;;;;;;;24.25;18.00;;;;;;;;5019406;28;8961;-77
2021/01/26 01:20:25;;;;;;;;;24.25;18.50;;;;;;;;5021712;28;8842;-79
2021/01/26 01:22:51;;;;;;;;;23.25;20.00;;;;;;;;5020114;28;8856;-76
2021/01/26 01:25:17;;;;;;;;;26.25;19.25;;;;;;;;5020857;28;8846;-76
2021/01/26 01:27:44;;;;;;;;;21.25;20.00;;;;;;;;5020825;28;9797;-77
2021/01/26 01:30:12;;;;;;;;;21.00;20.50;;;;;;;;5019614;28;8878;-76
2021/01/26 01:32:37;;;;;;;;;17.50;16.50;;;;;;;;5021836;28;8836;-76
2021/01/26 01:35:04;;;;;;;;;22.00;19.75;;;;;;;;5018916;28;8885;-77
2021/01/26 01:37:30;;;;;;;;;16.25;15.00;;;;;;;;5019075;28;8850;-76
2021/01/26 01:39:56;;;;;;;;;17.75;16.75;;;;;;;;5021507;28;8856;-77
2021/01/26 01:42:22;;;;;;;;;23.00;18.25;;;;;;;;5019983;28;8847;-75
2021/01/26 01:44:48;;;;;;;;;13.75;12.50;;;;;;;;5020560;28;8843;-75
2021/01/26 01:47:18;;;;;;;;;22.50;19.00;;;;;;;;5020814;28;9002;-75
2021/01/26 01:49:46;;;;;;;;;21.50;16.00;;;;;;;;5019996;28;8970;-75
2021/01/26 01:52:13;;;;;;;;;18.00;18.00;;;;;;;;5021530;28;8866;-75
2021/01/26 01:54:43;;;;;;;;;20.50;19.00;;;;;;;;5019680;28;8861;-75
2021/01/26 01:57:13;;;;;;;;;18.75;16.00;;;;;;;;5022137;28;8832;-76
2021/01/26 01:59:41;;;;;;;;;20.00;19.25;;;;;;;;5019427;28;8851;-76
2021/01/26 02:02:09;;;;;;;;;17.25;17.25;;;;;;;;5017092;28;8942;-76
2021/01/26 02:04:37;;;;;;;;;17.25;16.75;;;;;;;;5021773;28;8944;-76
2021/01/26 02:07:04;;;;;;;;;15.00;13.00;;;;;;;;5018598;28;8935;-77
2021/01/26 02:09:31;;;;;;;;;18.75;17.50;;;;;;;;5018658;28;8838;-78
2021/01/26 02:11:58;;;;;;;;;20.75;17.75;;;;;;;;5021541;28;8840;-78
2021/01/26 02:14:24;;;;;;;;;19.25;17.75;;;;;;;;5019498;28;9746;-77
2021/01/26 02:16:58;;;;;;;;;17.25;14.75;;;;;;;;5020270;28;8924;-78
2021/01/26 02:19:52;;;;;;;;;13.25;13.25;;;;;;;;5019380;28;10822;-77
2021/01/26 02:22:42;;;;;;;;;15.00;13.00;;;;;;;;5022118;28;9772;-77
2021/01/26 02:25:15;;;;;;;;;16.50;14.00;;;;;;;;5018978;28;8842;-77
2021/01/26 02:28:08;;;;;;;;;19.75;16.00;;;;;;;;5020643;28;8982;-78
2021/01/26 02:30:47;;;;;;;;;18.50;14.25;;;;;;;;4994327;28;9539;-77
2021/01/26 02:33:36;;;;;;;;;14.50;13.50;;;;;;;;5022155;28;9678;-77
2021/01/26 02:36:16;;;;;;;;;12.50;12.50;;;;;;;;5019607;28;9567;-77
2021/01/26 02:39:02;;;;;;;;;14.75;12.00;;;;;;;;5022853;28;8842;-77
2021/01/26 02:41:33;;;;;;;;;15.25;13.25;;;;;;;;5022297;28;8954;-76
2021/01/26 02:44:03;;;;;;;;;21.50;13.25;;;;;;;;5025209;28;8966;-77
2021/01/26 02:46:34;;;;;;;;;20.00;15.75;;;;;;;;5021954;28;9659;-76
2021/01/26 02:49:02;;;;;;;;;11.75;11.75;;;;;;;;5021983;28;8871;-77
2021/01/26 02:51:32;;;;;;;;;12.00;11.75;;;;;;;;5025087;28;8829;-76
2021/01/26 02:54:00;;;;;;;;;11.50;11.00;;;;;;;;5021894;28;8851;-76
2021/01/26 02:56:31;;;;;;;;;12.00;8.75;;;;;;;;5024774;28;9002;-76
2021/01/26 02:59:00;;;;;;;;;15.00;12.75;;;;;;;;5021906;28;8957;-76
2021/01/26 03:01:29;;;;;;;;;12.00;12.00;;;;;;;;5024926;28;8909;-77
2021/01/26 03:03:58;;;;;;;;;15.00;12.00;;;;;;;;5021948;28;8897;-76
2021/01/26 03:06:26;;;;;;;;;15.00;13.75;;;;;;;;5023977;28;8851;-77
2021/01/26 03:08:54;;;;;;;;;11.75;11.75;;;;;;;;5022566;28;8978;-76
2021/01/26 03:11:23;;;;;;;;;17.75;15.75;;;;;;;;5023407;28;8857;-76
2021/01/26 03:13:52;;;;;;;;;18.00;14.00;;;;;;;;5022416;28;8848;-76
2021/01/26 03:16:19;;;;;;;;;9.00;8.00;;;;;;;;5021581;28;8950;-76
2021/01/26 03:18:48;;;;;;;;;13.75;11.00;;;;;;;;5022594;28;8954;-76
2021/01/26 03:24:06;;;;;;;;;11.50;11.50;;;;;;;;5120658;27;13521;-77
2021/01/26 18:09:17;;;;;;;;;19.00;18.33;;;;;;;;5102473;27;875318;-70
2021/01/26 18:11:43;;;;;;;;;15.33;13.00;;;;;;;;5117369;27;9190;-68
2021/01/26 18:14:09;;;;;;;;;23.00;17.00;;;;;;;;5118947;27;8955;-68
2021/01/26 18:16:34;;;;;;;;;26.00;22.50;;;;;;;;5111121;28;8877;-70
2021/01/26 18:19:00;;;;;;;;;25.00;21.67;;;;;;;;5112216;27;8840;-70
2021/01/26 18:21:26;;;;;;;;;20.00;20.00;;;;;;;;5114815;28;8483;-71
2021/01/26 18:23:52;;;;;;;;;22.50;19.50;;;;;;;;5117863;28;8831;-69
2021/01/26 18:26:19;;;;;;;;;20.33;19.00;;;;;;;;5117088;27;9304;-71
2021/01/26 18:28:46;;;;;;;;;24.00;21.00;;;;;;;;5115299;27;8732;-73
2021/01/26 18:31:12;;;;;;;;;21.00;21.00;;;;;;;;5115621;27;8915;-74
2021/01/26 18:33:38;;;;;;;;;25.00;21.00;;;;;;;;5116933;27;9620;-72
2021/01/26 18:36:05;;;;;;;;;24.00;21.00;;;;;;;;5114554;27;8865;-75
2021/01/26 18:38:30;;;;;;;;;27.67;23.00;;;;;;;;5117431;27;9725;-71
2021/01/26 18:40:56;;;;;;;;;30.33;26.67;;;;;;;;5112792;27;8959;-73
2021/01/26 18:43:23;;;;;;;;;23.33;21.00;;;;;;;;5114073;28;8949;-71
2021/01/26 18:45:49;;;;;;;;;41.00;32.33;;;;;;;;5117069;27;8840;-71
2021/01/26 18:48:16;;;;;;;;;34.67;32.67;;;;;;;;5113330;27;8916;-71
2021/01/26 18:50:42;;;;;;;;;41.33;34.00;;;;;;;;5116407;27;9642;-72
2021/01/26 18:53:11;;;;;;;;;34.00;31.67;;;;;;;;5115994;27;8958;-74
2021/01/26 18:55:37;;;;;;;;;35.33;28.67;;;;;;;;5110960;27;8935;-74
2021/01/26 18:58:03;;;;;;;;;32.00;25.67;;;;;;;;5108558;27;8848;-72
2021/01/26 19:00:31;;;;;;;;;29.00;27.00;;;;;;;;5115346;27;8839;-72
2021/01/26 19:02:57;;;;;;;;;33.67;29.33;;;;;;;;5113805;27;8860;-71
2021/01/26 19:05:24;;;;;;;;;31.67;25.67;;;;;;;;5112809;27;8910;-75
2021/01/26 19:07:51;;;;;;;;;34.33;30.33;;;;;;;;5110409;28;9684;-72
2021/01/26 19:10:18;;;;;;;;;33.67;29.00;;;;;;;;5107286;27;8914;-73
2021/01/26 19:12:44;;;;;;;;;36.00;33.67;;;;;;;;5108133;27;8850;-73
2021/01/26 19:15:11;;;;;;;;;32.33;31.67;;;;;;;;5108931;27;8996;-72
2021/01/26 19:17:38;;;;;;;;;41.33;34.67;;;;;;;;5106328;28;8989;-73
2021/01/26 19:20:05;;;;;;;;;29.00;28.00;;;;;;;;5097965;28;8861;-73
2021/01/26 19:22:31;;;;;;;;;33.33;29.00;;;;;;;;5100453;28;8835;-75
2021/01/26 19:24:57;;;;;;;;;30.67;27.67;;;;;;;;5093883;28;9025;-77
2021/01/26 19:27:24;;;;;;;;;31.33;29.33;;;;;;;;5100300;28;8454;-71
2021/01/26 19:29:50;;;;;;;;;29.33;27.00;;;;;;;;5102337;28;8843;-73
2021/01/26 19:32:17;;;;;;;;;33.33;28.67;;;;;;;;5100116;28;8839;-75
2021/01/26 19:34:43;;;;;;;;;33.67;27.33;;;;;;;;5101525;28;8822;-76
2021/01/26 19:37:09;;;;;;;;;37.00;30.00;;;;;;;;5101234;28;8901;-79
2021/01/26 19:39:36;;;;;;;;;33.33;29.00;;;;;;;;5101161;28;9803;-75
2021/01/26 19:42:02;;;;;;;;;35.00;33.33;;;;;;;;5101643;28;8669;-76
2021/01/26 19:44:28;;;;;;;;;30.33;25.33;;;;;;;;5099998;28;9047;-76
2021/01/26 19:46:54;;;;;;;;;28.00;23.67;;;;;;;;5094696;28;8842;-79
2021/01/26 19:49:20;;;;;;;;;24.33;22.67;;;;;;;;5102324;28;8824;-78
2021/01/26 19:51:47;;;;;;;;;28.67;27.33;;;;;;;;5100317;28;8863;-70
2021/01/26 19:54:12;;;;;;;;;27.67;26.00;;;;;;;;5100527;28;9460;-70
2021/01/26 19:56:39;;;;;;;;;27.00;23.00;;;;;;;;5101384;28;9623;-70
2021/01/26 19:59:05;;;;;;;;;30.00;28.00;;;;;;;;5099523;28;8861;-70
2021/01/26 20:01:31;;;;;;;;;32.33;29.33;;;;;;;;5102124;28;8836;-70
2021/01/26 20:03:57;;;;;;;;;32.67;26.00;;;;;;;;5098497;28;8842;-75
2021/01/26 20:06:23;;;;;;;;;26.67;25.33;;;;;;;;5102348;28;8863;-73
2021/01/26 20:08:49;;;;;;;;;27.33;26.00;;;;;;;;5099348;28;8858;-73
2021/01/26 20:11:15;;;;;;;;;33.50;27.50;;;;;;;;5100776;28;8969;-74
2021/01/26 20:13:41;;;;;;;;;24.00;20.00;;;;;;;;5101848;28;8949;-73
2021/01/26 20:16:07;;;;;;;;;34.33;28.00;;;;;;;;5100221;28;9997;-73
2021/01/26 20:18:33;;;;;;;;;29.33;25.33;;;;;;;;5097082;28;8878;-73
2021/01/26 20:21:00;;;;;;;;;31.67;27.67;;;;;;;;5094798;28;8957;-73
2021/01/26 20:23:26;;;;;;;;;30.33;29.33;;;;;;;;5092897;28;8943;-72
2021/01/26 20:25:53;;;;;;;;;30.33;27.00;;;;;;;;5092379;28;8850;-74
2021/01/26 20:28:19;;;;;;;;;23.67;22.67;;;;;;;;5094235;28;8951;-78
2021/01/26 20:30:45;;;;;;;;;22.67;22.00;;;;;;;;4891647;28;68878;-78
2021/01/26 20:33:11;;;;;;;;;31.00;26.67;;;;;;;;5041646;28;8863;-74
2021/01/26 20:35:37;;;;;;;;;30.00;24.33;;;;;;;;5048344;28;8396;-74
2021/01/26 20:38:04;;;;;;;;;30.67;28.67;;;;;;;;5047355;28;8688;-78
2021/01/26 20:40:31;;;;;;;;;28.00;26.00;;;;;;;;5048527;28;8501;-78
2021/01/26 20:42:58;;;;;;;;;27.33;25.33;;;;;;;;5047406;28;9047;-76
2021/01/26 20:45:28;;;;;;;;;32.67;25.67;;;;;;;;5047715;28;8896;-76
2021/01/26 20:47:56;;;;;;;;;33.33;31.33;;;;;;;;5045900;28;8839;-78
2021/01/26 20:50:22;;;;;;;;;35.00;31.67;;;;;;;;5048330;28;8514;-76
2021/01/26 20:52:48;;;;;;;;;30.33;25.67;;;;;;;;5047915;28;8509;-77
2021/01/26 20:55:15;;;;;;;;;30.67;29.67;;;;;;;;5047526;28;8514;-76
2021/01/26 20:57:41;;;;;;;;;35.00;31.00;;;;;;;;5047503;28;8616;-73
2021/01/26 21:00:09;;;;;;;;;33.33;30.00;;;;;;;;5046889;28;9656;-77
2021/01/26 21:02:35;;;;;;;;;26.00;25.33;;;;;;;;5048505;28;9117;-78
2021/01/26 21:05:01;;;;;;;;;29.33;29.33;;;;;;;;5047640;28;8854;-74
2021/01/26 21:07:27;;;;;;;;;36.67;30.00;;;;;;;;5048901;28;8862;-73
2021/01/26 21:09:53;;;;;;;;;33.67;29.00;;;;;;;;5000166;28;11098;-73
2021/01/26 21:12:19;;;;;;;;;25.67;24.00;;;;;;;;5036408;28;8919;-72
2021/01/26 21:14:48;;;;;;;;;29.33;26.67;;;;;;;;5047227;28;8951;-73
2021/01/26 21:17:15;;;;;;;;;25.33;23.00;;;;;;;;5048089;28;8850;-74
2021/01/26 21:19:41;;;;;;;;;26.33;24.33;;;;;;;;5049020;28;8941;-73
2021/01/26 21:22:07;;;;;;;;;27.00;22.33;;;;;;;;5048108;28;8850;-74
2021/01/26 21:24:33;;;;;;;;;29.33;26.67;;;;;;;;5008057;28;10653;-76
2021/01/26 21:26:59;;;;;;;;;32.00;29.00;;;;;;;;4998592;28;10336;-78
2021/01/26 21:29:25;;;;;;;;;34.33;29.67;;;;;;;;5023364;28;11095;-76
2021/01/26 21:31:51;;;;;;;;;26.33;21.33;;;;;;;;5048597;28;8877;-79
2021/01/26 21:34:18;;;;;;;;;23.00;23.00;;;;;;;;5047775;28;8867;-78
2021/01/26 21:36:44;;;;;;;;;30.67;28.67;;;;;;;;5048640;28;8858;-77
2021/01/26 21:39:13;;;;;;;;;25.00;23.67;;;;;;;;5047805;28;8858;-75
2021/01/26 21:41:39;;;;;;;;;29.00;24.67;;;;;;;;5048340;28;8871;-76
2021/01/26 21:44:05;;;;;;;;;33.33;26.67;;;;;;;;5048309;28;8957;-78
2021/01/26 21:46:31;;;;;;;;;28.50;25.00;;;;;;;;5048131;28;8961;-77
2021/01/26 21:48:57;;;;;;;;;32.00;28.50;;;;;;;;5048500;28;8881;-76
2021/01/26 21:51:24;;;;;;;;;27.00;25.25;;;;;;;;5046687;28;8865;-76
2021/01/26 21:53:49;;;;;;;;;34.33;25.33;;;;;;;;5046105;28;9647;-78
2021/01/26 21:56:15;;;;;;;;;33.25;29.50;;;;;;;;5048542;28;8835;-76
2021/01/26 21:58:41;;;;;;;;;30.25;28.75;;;;;;;;5049414;28;8851;-76
2021/01/26 22:01:08;;;;;;;;;30.67;28.33;;;;;;;;5049685;28;9526;-76
2021/01/26 22:03:34;;;;;;;;;28.25;25.75;;;;;;;;5049938;28;8961;-77
2021/01/26 22:06:00;;;;;;;;;32.25;29.75;;;;;;;;5047777;28;8827;-77
2021/01/26 22:08:27;;;;;;;;;36.00;32.50;;;;;;;;5046842;28;8863;-77
2021/01/26 22:10:53;;;;;;;;;25.75;24.75;;;;;;;;5049532;28;8807;-76
2021/01/26 22:13:19;;;;;;;;;33.00;28.50;;;;;;;;5049666;28;8847;-78
2021/01/26 22:15:45;;;;;;;;;32.00;31.00;;;;;;;;5049703;28;8878;-76
2021/01/26 22:18:11;;;;;;;;;28.75;25.00;;;;;;;;5049512;28;8855;-77
2021/01/26 22:20:37;;;;;;;;;32.75;28.00;;;;;;;;5049284;28;8843;-76
2021/01/26 22:23:05;;;;;;;;;29.75;27.25;;;;;;;;5047254;28;8923;-77
2021/01/26 22:25:34;;;;;;;;;27.75;26.00;;;;;;;;5047651;28;8842;-76
2021/01/26 22:28:01;;;;;;;;;37.25;32.50;;;;;;;;5047868;28;8831;-76
2021/01/26 22:30:27;;;;;;;;;31.75;29.75;;;;;;;;5048550;28;8823;-73
2021/01/26 22:32:53;;;;;;;;;35.25;30.75;;;;;;;;5048213;28;8882;-73
2021/01/26 22:35:20;;;;;;;;;29.75;26.75;;;;;;;;5048525;28;9626;-75
2021/01/26 22:37:46;;;;;;;;;29.00;29.00;;;;;;;;5048705;28;8855;-75
2021/01/26 22:40:13;;;;;;;;;31.50;30.00;;;;;;;;5048840;28;8851;-75
2021/01/26 22:42:40;;;;;;;;;29.00;27.33;;;;;;;;5049393;28;8847;-75
2021/01/26 22:45:07;;;;;;;;;25.33;24.00;;;;;;;;5048936;28;8986;-74
2021/01/26 22:47:33;;;;;;;;;27.75;25.50;;;;;;;;5049296;28;8838;-75
2021/01/26 22:49:58;;;;;;;;;28.00;24.33;;;;;;;;5048648;28;8851;-76
2021/01/26 22:52:24;;;;;;;;;29.67;26.00;;;;;;;;5049137;28;8954;-74
2021/01/26 22:54:50;;;;;;;;;29.50;23.25;;;;;;;;5042746;28;9594;-75
2021/01/26 22:57:16;;;;;;;;;24.25;20.50;;;;;;;;5052653;28;8819;-75
2021/01/26 22:59:43;;;;;;;;;30.25;25.25;;;;;;;;5052890;28;8865;-76
2021/01/26 23:02:09;;;;;;;;;30.50;24.00;;;;;;;;5052496;28;8957;-74
2021/01/26 23:04:35;;;;;;;;;32.25;28.00;;;;;;;;5052663;28;8874;-74
2021/01/26 23:07:02;;;;;;;;;29.00;23.50;;;;;;;;5052421;28;8846;-74
2021/01/26 23:09:28;;;;;;;;;27.00;23.50;;;;;;;;5052500;28;8861;-74
2021/01/26 23:11:54;;;;;;;;;27.00;22.75;;;;;;;;5052334;28;8827;-76
2021/01/26 23:14:20;;;;;;;;;28.00;24.50;;;;;;;;5048953;28;8851;-74
2021/01/26 23:16:47;;;;;;;;;29.67;23.00;;;;;;;;5052309;28;8847;-74
2021/01/26 23:19:14;;;;;;;;;24.25;21.50;;;;;;;;5052148;28;8871;-74
2021/01/26 23:21:41;;;;;;;;;23.25;23.25;;;;;;;;5052688;28;8847;-74
2021/01/26 23:24:07;;;;;;;;;30.00;28.00;;;;;;;;5052007;28;8835;-74
2021/01/26 23:26:33;;;;;;;;;28.00;26.75;;;;;;;;5052291;28;8839;-74
2021/01/26 23:29:00;;;;;;;;;33.25;27.00;;;;;;;;5052080;28;8989;-74
2021/01/26 23:31:26;;;;;;;;;27.75;26.00;;;;;;;;5052395;28;8961;-73
2021/01/26 23:33:53;;;;;;;;;25.75;24.00;;;;;;;;5051889;28;9580;-73
2021/01/26 23:36:19;;;;;;;;;25.75;23.25;;;;;;;;5043996;28;9021;-74
2021/01/26 23:38:45;;;;;;;;;23.75;22.75;;;;;;;;5052034;28;8839;-74
2021/01/26 23:41:11;;;;;;;;;22.00;20.75;;;;;;;;5052129;28;8981;-74
2021/01/26 23:43:37;;;;;;;;;27.00;23.25;;;;;;;;5052042;28;9017;-74
2021/01/26 23:46:03;;;;;;;;;24.00;20.25;;;;;;;;5051851;28;8831;-74
2021/01/26 23:48:29;;;;;;;;;23.50;23.00;;;;;;;;5051838;28;8854;-74
2021/01/26 23:50:56;;;;;;;;;22.25;20.50;;;;;;;;5051919;28;8863;-73
2021/01/26 23:53:23;;;;;;;;;26.75;21.75;;;;;;;;5052208;28;9073;-74
2021/01/26 23:55:49;;;;;;;;;26.00;20.50;;;;;;;;5048056;28;8850;-73
2021/01/26 23:58:15;;;;;;;;;19.25;18.75;;;;;;;;5051726;28;8911;-73
